TAP1454 LPPT-GMMX
Flight info
| Callsign | TAP1454 |
|---|---|
| Flight time | N/A |
| Altitude | 39000 |
| Route | DUZOP DCT AMSEL UR722 MABAP |
| Aircraft | A320/M-SDE3FGHIRWY/LB1 |
Departure
| Time | 2026-05-04 12:57 |
|---|---|
| Airport | Lisbon Humberto Delgado Airport (LPPT) |
Arrival
| Time | N/A |
|---|---|
| Airport | Marrakesh Menara Airport (GMMX) |
| Time | Latitude | Longitude | Altitude | Speed | Heading |
|---|---|---|---|---|---|
| 2026-05-04 12:50 | 38.76741 | -9.13902 | 351 ft | 0 kts | 258° |
| 2026-05-04 12:51 | 38.76743 | -9.13889 | 352 ft | 4 kts | 258° |
| 2026-05-04 12:52 | 38.76748 | -9.13856 | 355 ft | 4 kts | 258° |
| 2026-05-04 12:52 | 38.76754 | -9.13822 | 353 ft | 4 kts | 258° |
| 2026-05-04 12:52 | 38.76759 | -9.13790 | 355 ft | 2 kts | 258° |
| 2026-05-04 12:52 | 38.76760 | -9.13789 | 355 ft | 0 kts | 258° |
| 2026-05-04 12:54 | 38.76733 | -9.13817 | 345 ft | 9 kts | 178° |
| 2026-05-04 12:54 | 38.76676 | -9.13831 | 353 ft | 11 kts | 231° |
| 2026-05-04 12:54 | 38.76651 | -9.13943 | 346 ft | 15 kts | 256° |
| 2026-05-04 12:55 | 38.76610 | -9.14076 | 350 ft | 18 kts | 233° |
| 2026-05-04 12:55 | 38.76587 | -9.14225 | 335 ft | 19 kts | 301° |
| 2026-05-04 12:55 | 38.76616 | -9.14357 | 332 ft | 16 kts | 289° |
| 2026-05-04 12:55 | 38.76684 | -9.14387 | 333 ft | 9 kts | 37° |
| 2026-05-04 12:56 | 38.76728 | -9.14345 | 337 ft | 7 kts | 37° |
| 2026-05-04 12:56 | 38.76823 | -9.14292 | 348 ft | 32 kts | 22° |
| 2026-05-04 12:56 | 38.77275 | -9.14053 | 361 ft | 106 kts | 21° |
| 2026-05-04 12:56 | 38.78158 | -9.13635 | 387 ft | 161 kts | 9° |
| 2026-05-04 12:57 | 38.79222 | -9.13167 | 1113 ft | 161 kts | 18° |
| 2026-05-04 12:57 | 38.80256 | -9.12604 | 1923 ft | 166 kts | 21° |
| 2026-05-04 12:57 | 38.81379 | -9.11957 | 2423 ft | 190 kts | 23° |
| 2026-05-04 12:57 | 38.82589 | -9.11008 | 2980 ft | 217 kts | 28° |
| 2026-05-04 12:58 | 38.83943 | -9.09926 | 3622 ft | 241 kts | 28° |
| 2026-05-04 12:58 | 38.85429 | -9.08760 | 4560 ft | 256 kts | 27° |
| 2026-05-04 12:58 | 38.86974 | -9.07536 | 5713 ft | 264 kts | 31° |
| 2026-05-04 12:58 | 38.88337 | -9.05897 | 6766 ft | 275 kts | 50° |
| 2026-05-04 12:59 | 38.89248 | -9.03739 | 7716 ft | 284 kts | 68° |
| 2026-05-04 12:59 | 38.89595 | -9.01216 | 8663 ft | 295 kts | 88° |
| 2026-05-04 12:59 | 38.89582 | -8.98565 | 9725 ft | 298 kts | 89° |
| 2026-05-04 12:59 | 38.89572 | -8.95873 | 10563 ft | 311 kts | 88° |
| 2026-05-04 13:00 | 38.89570 | -8.92986 | 10978 ft | 335 kts | 89° |
| 2026-05-04 13:00 | 38.89569 | -8.89885 | 11325 ft | 360 kts | 89° |
| 2026-05-04 13:00 | 38.89568 | -8.86565 | 11584 ft | 384 kts | 89° |
| 2026-05-04 13:00 | 38.89565 | -8.83045 | 11875 ft | 403 kts | 89° |
| 2026-05-04 13:01 | 38.89559 | -8.79400 | 12492 ft | 412 kts | 89° |
| 2026-05-04 13:01 | 38.89484 | -8.75696 | 13171 ft | 420 kts | 96° |
| 2026-05-04 13:01 | 38.88735 | -8.72046 | 13831 ft | 427 kts | 115° |
| 2026-05-04 13:01 | 38.87168 | -8.68822 | 14424 ft | 428 kts | 133° |
| 2026-05-04 13:02 | 38.84911 | -8.66350 | 15053 ft | 426 kts | 152° |
| 2026-05-04 13:02 | 38.82206 | -8.64870 | 15695 ft | 422 kts | 169° |
| 2026-05-04 13:02 | 38.79348 | -8.64445 | 16291 ft | 419 kts | 184° |
| 2026-05-04 13:02 | 38.76424 | -8.64447 | 16924 ft | 422 kts | 184° |
| 2026-05-04 13:03 | 38.73472 | -8.64470 | 17549 ft | 425 kts | 185° |
| 2026-05-04 13:03 | 38.70506 | -8.64504 | 18162 ft | 429 kts | 185° |
| 2026-05-04 13:03 | 38.67508 | -8.64536 | 18715 ft | 432 kts | 185° |
| 2026-05-04 13:03 | 38.64489 | -8.64561 | 19225 ft | 436 kts | 185° |
| 2026-05-04 13:04 | 38.61446 | -8.64580 | 19734 ft | 439 kts | 185° |
| 2026-05-04 13:04 | 38.58377 | -8.64594 | 20236 ft | 443 kts | 185° |
| 2026-05-04 13:04 | 38.55283 | -8.64605 | 20696 ft | 446 kts | 185° |
| 2026-05-04 13:04 | 38.52162 | -8.64621 | 21147 ft | 450 kts | 185° |
| 2026-05-04 13:05 | 38.49024 | -8.64645 | 21605 ft | 453 kts | 185° |
| 2026-05-04 13:05 | 38.45856 | -8.64674 | 22054 ft | 456 kts | 185° |
| 2026-05-04 13:05 | 38.42669 | -8.64701 | 22506 ft | 460 kts | 185° |
| 2026-05-04 13:05 | 38.39458 | -8.64721 | 22953 ft | 463 kts | 185° |
| 2026-05-04 13:06 | 38.36231 | -8.64736 | 23382 ft | 466 kts | 185° |
| 2026-05-04 13:06 | 38.33019 | -8.64748 | 23750 ft | 469 kts | 185° |
| 2026-05-04 13:06 | 38.29709 | -8.64766 | 24021 ft | 470 kts | 185° |
| 2026-05-04 13:06 | 38.26477 | -8.64789 | 24092 ft | 470 kts | 185° |
| 2026-05-04 13:07 | 38.23205 | -8.64815 | 24107 ft | 470 kts | 185° |
| 2026-05-04 13:07 | 38.19941 | -8.64838 | 24102 ft | 470 kts | 185° |
| 2026-05-04 13:07 | 38.16667 | -8.64852 | 24103 ft | 470 kts | 185° |
| 2026-05-04 13:07 | 38.13388 | -8.64865 | 24106 ft | 470 kts | 185° |
| 2026-05-04 13:08 | 38.10125 | -8.64884 | 24109 ft | 469 kts | 185° |
| 2026-05-04 13:08 | 38.06841 | -8.64906 | 24322 ft | 473 kts | 185° |
| 2026-05-04 13:08 | 38.03537 | -8.64666 | 24668 ft | 482 kts | 175° |
| 2026-05-04 13:08 | 38.00260 | -8.63589 | 24986 ft | 489 kts | 168° |
| 2026-05-04 13:09 | 37.96988 | -8.62370 | 25328 ft | 491 kts | 168° |
| 2026-05-04 13:09 | 37.93707 | -8.61123 | 25663 ft | 493 kts | 168° |
| 2026-05-04 13:09 | 37.90419 | -8.59861 | 25981 ft | 495 kts | 168° |
| 2026-05-04 13:09 | 37.87115 | -8.58592 | 26264 ft | 497 kts | 168° |
| 2026-05-04 13:10 | 37.83802 | -8.57324 | 26668 ft | 497 kts | 168° |
| 2026-05-04 13:10 | 37.82687 | -8.56898 | 26827 ft | 496 kts | 168° |